createdAt,value
2018-05-04T00:00:54.901Z,4.70
2018-05-04T00:01:54.897Z,3.70
2018-05-04T00:02:54.890Z,6.10
2018-05-04T00:03:54.885Z,5.40
2018-05-04T00:04:54.878Z,4.20
2018-05-04T00:05:54.876Z,3.70
2018-05-04T00:06:54.870Z,4.90
2018-05-04T00:07:54.864Z,4.90
2018-05-04T00:08:54.868Z,4.40
2018-05-04T00:09:54.853Z,5.50
2018-05-04T00:10:54.849Z,4.40
2018-05-04T00:11:54.844Z,5.00
2018-05-04T00:12:54.838Z,5.10
2018-05-04T00:13:54.837Z,4.60
2018-05-04T00:14:54.826Z,3.80
2018-05-04T00:15:54.821Z,4.90
2018-05-04T00:16:54.814Z,4.40
2018-05-04T00:17:54.807Z,5.00
2018-05-04T00:18:54.805Z,5.60
2018-05-04T00:19:54.801Z,4.60
2018-05-04T00:20:54.797Z,5.40
2018-05-04T00:21:54.788Z,4.00
2018-05-04T00:22:54.785Z,4.70
2018-05-04T00:23:54.778Z,3.30
2018-05-04T00:24:54.772Z,5.20
2018-05-04T00:25:54.778Z,4.90
2018-05-04T00:26:54.760Z,3.60
2018-05-04T00:27:54.755Z,5.00
2018-05-04T00:28:54.748Z,5.60
2018-05-04T00:29:54.745Z,4.20
2018-05-04T00:30:54.742Z,5.50
2018-05-04T00:31:54.732Z,4.40
2018-05-04T00:32:54.727Z,4.40
2018-05-04T00:33:54.722Z,5.40
2018-05-04T00:34:54.716Z,4.30
2018-05-04T00:35:54.711Z,5.20
2018-05-04T00:36:54.708Z,6.20
2018-05-04T00:37:54.700Z,5.10
2018-05-04T00:38:54.694Z,4.30
2018-05-04T00:39:54.688Z,5.60
2018-05-04T00:40:54.691Z,3.60
2018-05-04T00:41:54.680Z,4.50
2018-05-04T00:42:54.672Z,5.30
2018-05-04T00:43:54.666Z,4.30
2018-05-04T00:44:54.660Z,4.20
2018-05-04T00:45:54.655Z,3.70
2018-05-04T00:46:54.652Z,4.20
2018-05-04T00:47:54.644Z,4.80
2018-05-04T00:48:54.639Z,5.30
2018-05-04T00:49:54.632Z,3.90
2018-05-04T00:50:54.626Z,4.30
2018-05-04T00:51:54.621Z,3.90
2018-05-04T00:52:54.616Z,3.40
2018-05-04T00:53:54.609Z,5.00
2018-05-04T00:54:54.603Z,4.40
2018-05-04T00:55:54.597Z,5.10
2018-05-04T00:56:54.592Z,3.80
2018-05-04T00:57:54.589Z,5.30
2018-05-04T00:58:54.580Z,6.00
2018-05-04T00:59:54.580Z,5.10
2018-05-04T01:00:54.569Z,3.90
2018-05-04T01:01:54.567Z,5.10
2018-05-04T01:02:54.558Z,4.40
2018-05-04T01:03:54.552Z,4.10
2018-05-04T01:04:54.547Z,4.00
2018-05-04T01:05:54.542Z,4.30
2018-05-04T01:06:54.533Z,5.10
2018-05-04T01:07:54.528Z,5.70
2018-05-04T01:08:54.550Z,4.20
2018-05-04T01:09:54.515Z,5.20
2018-05-04T01:10:54.512Z,4.40
2018-05-04T01:11:54.505Z,5.10
2018-05-04T01:12:54.500Z,5.10
2018-05-04T01:13:54.498Z,5.20
2018-05-04T01:14:54.486Z,4.60
2018-05-04T01:15:54.483Z,5.20
2018-05-04T01:16:54.484Z,4.80
2018-05-04T01:17:54.472Z,5.20
2018-05-04T01:18:54.468Z,4.30
2018-05-04T01:19:54.460Z,4.80
2018-05-04T01:20:54.455Z,4.00
2018-05-04T01:21:54.448Z,4.60
2018-05-04T01:22:54.445Z,4.20
2018-05-04T01:23:54.437Z,5.70
2018-05-04T01:24:54.429Z,3.90
2018-05-04T01:25:54.427Z,4.30
2018-05-04T01:26:54.416Z,4.50
2018-05-04T01:27:54.416Z,4.60
2018-05-04T01:28:54.407Z,4.60
2018-05-04T01:29:54.401Z,5.40
2018-05-04T01:30:54.389Z,3.90
2018-05-04T01:31:54.389Z,5.30
2018-05-04T01:32:54.384Z,6.50
2018-05-04T01:33:54.382Z,5.80
2018-05-04T01:34:54.372Z,6.00
2018-05-04T01:35:54.366Z,5.30
2018-05-04T01:36:54.360Z,4.70
2018-05-04T01:37:54.355Z,5.20
2018-05-04T01:38:54.348Z,4.80
2018-05-04T01:39:54.367Z,3.70
2018-05-04T01:40:54.338Z,5.10
2018-05-04T01:41:54.330Z,6.10
2018-05-04T01:42:54.324Z,4.70
2018-05-04T01:43:54.318Z,6.40
2018-05-04T01:44:54.312Z,5.30
2018-05-04T01:45:54.307Z,7.80
2018-05-04T01:46:54.301Z,6.40
2018-05-04T01:47:54.294Z,5.10
2018-05-04T01:48:54.288Z,3.90
2018-05-04T01:49:54.285Z,5.30
2018-05-04T01:50:54.278Z,5.70
2018-05-04T01:51:54.272Z,4.60
2018-05-04T01:52:54.266Z,3.70
2018-05-04T01:53:54.259Z,5.90
2018-05-04T01:54:54.255Z,4.70
2018-05-04T01:55:54.244Z,4.50
2018-05-04T01:56:54.244Z,5.90
2018-05-04T01:57:54.236Z,4.70
2018-05-04T01:58:54.229Z,5.40
2018-05-04T01:59:54.223Z,4.70
2018-05-04T02:00:54.216Z,5.00
2018-05-04T02:01:54.211Z,5.20
2018-05-04T02:02:54.205Z,4.40
2018-05-04T02:03:54.197Z,4.80
2018-05-04T02:04:54.192Z,4.20
2018-05-04T02:05:54.186Z,3.90
2018-05-04T02:06:54.177Z,4.90
2018-05-04T02:07:54.235Z,4.60
2018-05-04T02:08:54.166Z,5.60
2018-05-04T02:09:54.161Z,6.60
2018-05-04T02:10:54.155Z,4.90
2018-05-04T02:11:54.148Z,5.90
2018-05-04T02:12:54.143Z,5.40
2018-05-04T02:13:54.137Z,6.90
2018-05-04T02:14:54.130Z,5.10
2018-05-04T02:15:54.125Z,6.30
2018-05-04T02:16:54.119Z,6.40
2018-05-04T02:17:54.112Z,6.10
2018-05-04T02:18:54.104Z,5.60
2018-05-04T02:19:54.098Z,4.90
2018-05-04T02:20:54.094Z,4.60
2018-05-04T02:21:54.089Z,5.30
2018-05-04T02:22:54.081Z,5.00
2018-05-04T02:23:54.079Z,4.60
2018-05-04T02:24:54.068Z,5.00
2018-05-04T02:25:54.064Z,5.20
2018-05-04T02:26:54.057Z,5.60
2018-05-04T02:27:54.052Z,5.20
2018-05-04T02:28:54.047Z,5.60
2018-05-04T02:29:54.043Z,5.30
2018-05-04T02:30:54.030Z,5.20
2018-05-04T02:31:54.025Z,6.10
2018-05-04T02:32:54.019Z,4.60
2018-05-04T02:33:54.013Z,6.50
2018-05-04T02:34:54.005Z,4.80
2018-05-04T02:35:53.998Z,5.90
2018-05-04T02:36:53.993Z,5.70
2018-05-04T02:37:53.989Z,5.70
2018-05-04T02:38:53.980Z,5.00
2018-05-04T02:39:53.977Z,5.60
2018-05-04T02:40:53.967Z,5.80
2018-05-04T02:41:53.961Z,4.00
2018-05-04T02:42:53.953Z,5.00
2018-05-04T02:43:53.946Z,4.90
2018-05-04T02:44:53.941Z,6.60
2018-05-04T02:45:53.933Z,3.90
2018-05-04T02:46:53.927Z,5.20
2018-05-04T02:47:53.928Z,6.30
2018-05-04T02:48:53.922Z,5.40
2018-05-04T02:49:53.911Z,4.40
2018-05-04T02:50:53.903Z,4.90
2018-05-04T02:51:53.894Z,6.20
2018-05-04T02:52:53.889Z,5.60
2018-05-04T02:53:53.882Z,5.40
2018-05-04T02:54:53.875Z,6.00
2018-05-04T02:55:53.869Z,4.00
2018-05-04T02:56:53.864Z,5.60
2018-05-04T02:57:53.861Z,6.10
2018-05-04T02:58:53.849Z,6.30
2018-05-04T02:59:53.842Z,7.40
2018-05-04T03:00:53.838Z,4.30
2018-05-04T03:01:53.828Z,6.10
2018-05-04T03:02:53.825Z,5.60
2018-05-04T03:03:53.816Z,4.80
2018-05-04T03:04:53.810Z,6.00
2018-05-04T03:05:53.806Z,6.40
2018-05-04T03:06:53.797Z,6.20
2018-05-04T03:07:53.794Z,5.20
2018-05-04T03:08:53.786Z,5.60
2018-05-04T03:09:53.776Z,5.10
2018-05-04T03:10:53.777Z,4.50
2018-05-04T03:11:53.764Z,4.20
2018-05-04T03:12:53.758Z,4.40
2018-05-04T03:13:53.750Z,4.90
2018-05-04T03:14:53.744Z,5.70
2018-05-04T03:15:53.737Z,6.00
2018-05-04T03:16:53.731Z,5.10
2018-05-04T03:17:53.724Z,6.10
2018-05-04T03:18:53.719Z,5.90
2018-05-04T03:19:53.711Z,6.40
2018-05-04T03:20:53.704Z,5.10
2018-05-04T03:21:53.759Z,6.00
2018-05-04T03:22:53.689Z,4.30
2018-05-04T03:23:53.685Z,6.90
2018-05-04T03:24:53.677Z,6.40
2018-05-04T03:25:53.676Z,6.80
2018-05-04T03:26:53.664Z,4.70
2018-05-04T03:27:53.657Z,4.80
2018-05-04T03:28:53.649Z,5.50
2018-05-04T03:29:53.644Z,4.60
2018-05-04T03:30:53.637Z,6.70
2018-05-04T03:31:53.631Z,5.90
2018-05-04T03:32:53.624Z,6.20
2018-05-04T03:33:53.618Z,6.00
2018-05-04T03:34:53.610Z,6.30
2018-05-04T03:35:53.604Z,5.70
2018-05-04T03:36:53.592Z,4.90
2018-05-04T03:37:53.590Z,5.60
2018-05-04T03:38:53.593Z,7.30
2018-05-04T03:39:53.577Z,5.00
2018-05-04T03:40:53.570Z,6.40
2018-05-04T03:41:53.564Z,5.30
2018-05-04T03:42:53.635Z,6.10
2018-05-04T03:43:53.555Z,5.80
2018-05-04T03:44:53.541Z,5.60
2018-05-04T03:45:53.540Z,6.60
2018-05-04T03:46:53.529Z,5.70
2018-05-04T03:47:53.525Z,5.20
2018-05-04T03:48:53.515Z,5.10
2018-05-04T03:49:53.512Z,6.70
2018-05-04T03:50:53.505Z,7.30
2018-05-04T03:51:53.503Z,6.00
2018-05-04T03:52:53.489Z,6.10
2018-05-04T03:53:53.483Z,4.90
2018-05-04T03:54:53.475Z,6.40
2018-05-04T03:55:53.471Z,6.50
2018-05-04T03:56:53.463Z,6.00
2018-05-04T03:57:53.459Z,5.80
2018-05-04T03:58:53.448Z,6.40
2018-05-04T03:59:53.443Z,6.30
2018-05-04T04:00:53.437Z,5.60
2018-05-04T04:01:53.429Z,6.10
2018-05-04T04:02:53.422Z,6.40
2018-05-04T04:03:53.415Z,7.60
2018-05-04T04:04:53.408Z,6.00
2018-05-04T04:05:53.401Z,5.30
2018-05-04T04:06:53.395Z,5.90
2018-05-04T04:07:53.387Z,7.40
2018-05-04T04:08:53.382Z,6.00
2018-05-04T04:09:53.375Z,5.60
2018-05-04T04:10:53.369Z,4.90
2018-05-04T04:11:53.370Z,6.20
2018-05-04T04:12:53.353Z,5.40
2018-05-04T04:13:53.348Z,6.70
2018-05-04T04:14:53.342Z,5.80
2018-05-04T04:15:53.336Z,6.40
2018-05-04T04:16:53.328Z,6.10
2018-05-04T04:17:53.365Z,5.80
2018-05-04T04:18:53.315Z,4.40
2018-05-04T04:19:53.308Z,6.60
2018-05-04T04:20:53.303Z,5.40
2018-05-04T04:21:53.300Z,5.20
2018-05-04T04:22:53.290Z,5.90
2018-05-04T04:23:53.283Z,5.60
2018-05-04T04:24:53.279Z,6.10
2018-05-04T04:25:53.271Z,5.90
2018-05-04T04:26:53.271Z,6.30
2018-05-04T04:27:53.257Z,6.90
2018-05-04T04:28:53.249Z,4.50
2018-05-04T04:29:53.247Z,5.70
2018-05-04T04:30:53.241Z,7.30
2018-05-04T04:31:53.232Z,5.20
2018-05-04T04:32:53.250Z,5.40
2018-05-04T04:33:53.219Z,4.20
2018-05-04T04:34:53.211Z,4.30
2018-05-04T04:35:53.209Z,6.00
2018-05-04T04:36:53.203Z,4.70
2018-05-04T04:37:53.197Z,6.10
2018-05-04T04:38:53.259Z,5.80
2018-05-04T04:39:53.183Z,4.80
2018-05-04T04:40:53.174Z,5.40
2018-05-04T04:41:53.170Z,5.70
2018-05-04T04:42:53.162Z,7.80
2018-05-04T04:43:53.155Z,4.50
2018-05-04T04:44:53.150Z,5.70
2018-05-04T04:45:53.146Z,4.90
2018-05-04T04:46:53.138Z,6.20
2018-05-04T04:47:53.137Z,4.70
2018-05-04T04:48:53.197Z,5.80
2018-05-04T04:49:53.121Z,4.60
2018-05-04T04:50:53.116Z,5.90
2018-05-04T04:51:53.111Z,5.60
2018-05-04T04:52:53.105Z,5.50
2018-05-04T04:53:53.100Z,4.50
2018-05-04T04:54:53.099Z,6.00
2018-05-04T04:55:53.090Z,5.70
2018-05-04T04:56:53.085Z,5.10
2018-05-04T04:57:53.081Z,5.40
2018-05-04T04:58:53.073Z,6.90
2018-05-04T04:59:53.070Z,7.60
2018-05-04T05:00:53.066Z,4.70
2018-05-04T05:01:53.119Z,5.20
2018-05-04T05:02:53.057Z,6.20
2018-05-04T05:03:53.051Z,5.70
2018-05-04T05:04:53.049Z,4.70
2018-05-04T05:05:53.045Z,5.00
2018-05-04T05:06:53.041Z,7.30
2018-05-04T05:07:53.038Z,6.00
2018-05-04T05:08:53.032Z,5.70
2018-05-04T05:09:53.029Z,5.70
2018-05-04T05:10:53.024Z,4.60
2018-05-04T05:11:53.029Z,6.00
2018-05-04T05:12:53.063Z,5.20
2018-05-04T05:13:53.013Z,4.50
2018-05-04T05:14:53.011Z,4.80
2018-05-04T05:15:53.007Z,4.70
2018-05-04T05:16:53.004Z,4.90
2018-05-04T05:17:53.012Z,5.60
2018-05-04T05:18:53.002Z,4.70
2018-05-04T05:19:52.994Z,4.40
2018-05-04T05:20:52.991Z,5.00
2018-05-04T05:21:53.027Z,6.40
2018-05-04T05:22:52.985Z,5.90
2018-05-04T05:23:52.985Z,5.20
2018-05-04T05:24:52.978Z,4.90
2018-05-04T05:25:52.980Z,5.90
2018-05-04T05:26:52.971Z,5.40
2018-05-04T05:27:52.971Z,6.20
2018-05-04T05:28:52.973Z,5.50
2018-05-04T05:29:52.967Z,5.40
2018-05-04T05:30:52.978Z,5.60
2018-05-04T05:31:52.962Z,5.00
2018-05-04T05:32:52.961Z,5.20
2018-05-04T05:33:52.991Z,5.10
2018-05-04T05:34:52.957Z,5.40
2018-05-04T05:35:52.957Z,6.30
2018-05-04T05:36:52.951Z,5.80
2018-05-04T05:37:52.955Z,4.70
2018-05-04T05:38:52.948Z,4.90
2018-05-04T05:39:52.957Z,5.50
2018-05-04T05:40:52.951Z,4.20
2018-05-04T05:41:52.950Z,5.40
2018-05-04T05:42:52.946Z,5.30
2018-05-04T05:43:52.946Z,5.20
2018-05-04T05:44:52.943Z,4.90
2018-05-04T05:45:52.943Z,6.60
2018-05-04T05:46:52.942Z,3.60
2018-05-04T05:47:52.934Z,5.00
2018-05-04T05:48:52.936Z,4.90
2018-05-04T05:49:52.941Z,4.60
2018-05-04T05:50:52.938Z,4.30
2018-05-04T05:51:53.011Z,4.60
2018-05-04T05:52:52.938Z,4.20
2018-05-04T05:53:52.941Z,4.20
2018-05-04T05:54:52.937Z,4.30
2018-05-04T05:55:52.939Z,5.80
2018-05-04T05:56:52.937Z,4.30
2018-05-04T05:57:52.936Z,4.40
2018-05-04T05:58:52.935Z,5.20
2018-05-04T05:59:52.938Z,4.80
2018-05-04T06:00:52.938Z,3.60
2018-05-04T06:01:52.933Z,4.50
2018-05-04T06:02:52.932Z,4.40
2018-05-04T06:03:52.937Z,4.40
2018-05-04T06:04:52.937Z,4.10
2018-05-04T06:05:52.939Z,4.80
2018-05-04T06:06:52.933Z,4.80
2018-05-04T06:07:52.936Z,4.70
2018-05-04T06:08:52.945Z,5.40
2018-05-04T06:09:52.941Z,3.80
2018-05-04T06:10:52.937Z,5.70
2018-05-04T06:11:52.947Z,5.00
2018-05-04T06:12:52.942Z,4.10
2018-05-04T06:13:52.942Z,4.80
2018-05-04T06:14:52.937Z,3.90
2018-05-04T06:15:52.938Z,5.20
2018-05-04T06:16:52.946Z,4.50
2018-05-04T06:17:52.941Z,3.70
2018-05-04T06:18:52.940Z,5.60
2018-05-04T06:19:52.941Z,4.10
2018-05-04T06:20:52.943Z,4.20
2018-05-04T06:21:52.947Z,4.30
2018-05-04T06:22:52.947Z,3.30
2018-05-04T06:23:52.945Z,4.40
2018-05-04T06:24:52.948Z,4.80
2018-05-04T06:25:52.949Z,3.70
2018-05-04T06:26:52.953Z,6.00
2018-05-04T06:27:52.953Z,3.30
2018-05-04T06:28:52.949Z,3.30
2018-05-04T06:29:52.953Z,4.30
2018-05-04T06:30:52.958Z,4.50
2018-05-04T06:31:52.960Z,6.10
2018-05-04T06:32:52.961Z,5.50
2018-05-04T06:33:53.028Z,4.80
2018-05-04T06:34:52.964Z,4.30
2018-05-04T06:35:52.962Z,4.00
2018-05-04T06:36:52.966Z,3.90
2018-05-04T06:37:52.964Z,5.70
2018-05-04T06:38:52.971Z,4.60
2018-05-04T06:39:52.971Z,5.20
2018-05-04T06:40:52.974Z,3.80
2018-05-04T06:41:52.981Z,5.00
2018-05-04T06:42:52.976Z,4.30
2018-05-04T06:43:52.990Z,3.60
2018-05-04T06:44:53.128Z,2.70
2018-05-04T06:45:53.004Z,4.80
2018-05-04T06:46:52.999Z,5.00
2018-05-04T06:47:52.989Z,4.70
2018-05-04T06:48:52.992Z,4.30
2018-05-04T06:49:52.994Z,4.20
2018-05-04T06:50:52.998Z,3.80
2018-05-04T06:51:53.015Z,3.50
2018-05-04T06:52:52.999Z,3.80
2018-05-04T06:53:53.004Z,4.60
2018-05-04T06:54:53.004Z,3.10
2018-05-04T06:55:53.006Z,3.70
2018-05-04T06:56:53.010Z,5.00
2018-05-04T06:57:53.016Z,4.50
2018-05-04T06:58:53.014Z,3.00
2018-05-04T06:59:53.018Z,4.30
2018-05-04T07:00:53.021Z,3.10
2018-05-04T07:01:53.026Z,3.50
2018-05-04T07:02:53.026Z,4.70
2018-05-04T07:03:53.030Z,3.30
2018-05-04T07:04:53.037Z,5.30
2018-05-04T07:05:53.036Z,5.00
2018-05-04T07:06:53.039Z,3.10
2018-05-04T07:07:53.045Z,3.30
2018-05-04T07:08:53.051Z,4.00
2018-05-04T07:09:53.048Z,6.00
2018-05-04T07:10:53.051Z,4.80
2018-05-04T07:11:53.167Z,2.90
2018-05-04T07:12:53.171Z,4.60
2018-05-04T07:13:53.176Z,3.40
2018-05-04T07:14:53.181Z,5.60
2018-05-04T07:15:53.188Z,4.00
2018-05-04T07:16:53.194Z,2.80
2018-05-04T07:17:53.184Z,3.90
2018-05-04T07:18:53.192Z,4.40
2018-05-04T07:19:53.197Z,3.40
2018-05-04T07:20:53.204Z,4.30
2018-05-04T07:21:53.495Z,4.60
2018-05-04T07:22:53.091Z,3.50
2018-05-04T07:23:53.099Z,5.80
2018-05-04T07:24:53.099Z,4.10
2018-05-04T07:25:53.117Z,5.40
2018-05-04T07:26:53.105Z,2.80
2018-05-04T07:27:53.109Z,3.40
2018-05-04T07:28:53.131Z,3.20
2018-05-04T07:29:53.117Z,3.10
2018-05-04T07:30:53.120Z,3.80
2018-05-04T07:31:53.126Z,3.80
2018-05-04T07:32:53.125Z,3.60
2018-05-04T07:33:53.129Z,3.40
2018-05-04T07:34:53.132Z,2.20
2018-05-04T07:35:53.206Z,2.50
2018-05-04T07:36:53.138Z,2.70
2018-05-04T07:37:53.144Z,3.40
2018-05-04T07:38:53.166Z,3.50
2018-05-04T07:39:53.152Z,3.60
2018-05-04T07:40:53.156Z,3.40
2018-05-04T07:41:53.166Z,2.90
2018-05-04T07:42:53.163Z,2.90
2018-05-04T07:43:53.165Z,2.60
2018-05-04T07:44:53.170Z,3.90
2018-05-04T07:45:53.174Z,3.50
2018-05-04T07:46:53.178Z,3.10
2018-05-04T07:47:53.183Z,3.20
2018-05-04T07:48:53.186Z,3.10
2018-05-04T07:49:53.245Z,2.70
2018-05-04T07:50:53.245Z,3.20
2018-05-04T07:51:53.202Z,3.80
2018-05-04T07:52:53.207Z,3.50
2018-05-04T07:53:53.259Z,4.00
2018-05-04T07:54:53.211Z,5.60
2018-05-04T07:55:53.216Z,3.20
2018-05-04T07:56:53.220Z,3.10
2018-05-04T07:57:53.227Z,2.20
2018-05-04T07:58:53.229Z,3.00
2018-05-04T07:59:53.235Z,3.40
2018-05-04T08:00:53.241Z,3.60
2018-05-04T08:01:53.276Z,2.20
2018-05-04T08:02:53.298Z,3.40
2018-05-04T08:03:53.255Z,3.70
2018-05-04T08:04:53.261Z,4.00
2018-05-04T08:05:53.266Z,3.50
2018-05-04T08:06:53.270Z,3.80
2018-05-04T08:07:53.277Z,4.50
2018-05-04T08:08:53.283Z,2.30
2018-05-04T08:09:53.288Z,2.70
2018-05-04T08:10:53.293Z,2.90
2018-05-04T08:11:53.299Z,2.20
2018-05-04T08:12:53.305Z,2.70
2018-05-04T08:13:53.310Z,2.80
2018-05-04T08:14:53.350Z,3.70
2018-05-04T08:15:53.321Z,2.80
2018-05-04T08:16:53.328Z,2.70
2018-05-04T08:17:53.336Z,2.60
2018-05-04T08:18:53.337Z,3.10
2018-05-04T08:19:53.343Z,3.10
2018-05-04T08:20:53.349Z,3.30
2018-05-04T08:21:53.364Z,1.40
2018-05-04T08:22:53.359Z,2.80
2018-05-04T08:23:53.369Z,1.90
2018-05-04T08:24:53.371Z,2.30
2018-05-04T08:25:53.377Z,2.70
2018-05-04T08:26:53.382Z,1.50
2018-05-04T08:27:53.387Z,2.80
2018-05-04T08:28:53.393Z,1.60
2018-05-04T08:29:53.401Z,3.70
2018-05-04T08:30:53.433Z,2.20
2018-05-04T08:31:53.414Z,2.90
2018-05-04T08:32:53.417Z,3.30
2018-05-04T08:33:53.498Z,3.40
2018-05-04T08:34:53.431Z,2.70
2018-05-04T08:35:53.439Z,2.80
2018-05-04T08:36:53.447Z,4.00
2018-05-04T08:37:53.463Z,2.80
2018-05-04T08:38:53.456Z,2.90
2018-05-04T08:39:53.464Z,2.30
2018-05-04T08:40:53.569Z,2.30
2018-05-04T08:41:53.474Z,1.60
2018-05-04T08:42:53.564Z,1.80
2018-05-04T08:43:53.490Z,2.40
2018-05-04T08:44:53.493Z,3.30
2018-05-04T08:45:53.497Z,2.70
2018-05-04T08:46:53.525Z,2.90
2018-05-04T08:47:53.507Z,3.80
2018-05-04T08:48:53.517Z,2.40
2018-05-04T08:49:53.527Z,1.80
2018-05-04T08:50:53.600Z,2.50
2018-05-04T08:51:53.534Z,1.40
2018-05-04T08:52:53.535Z,3.20
2018-05-04T08:53:53.538Z,3.00
2018-05-04T08:54:53.548Z,2.50
2018-05-04T08:55:53.550Z,2.90
2018-05-04T08:56:53.558Z,2.50
2018-05-04T08:57:53.559Z,2.80
2018-05-04T08:58:53.564Z,2.50
2018-05-04T08:59:53.569Z,2.00
2018-05-04T09:00:53.576Z,3.10
2018-05-04T09:01:53.583Z,2.20
2018-05-04T09:02:53.583Z,2.70
2018-05-04T09:03:53.588Z,2.40
2018-05-04T09:04:53.590Z,1.90
2018-05-04T09:05:53.595Z,2.10
2018-05-04T09:06:53.598Z,1.70
2018-05-04T09:07:53.600Z,2.20
2018-05-04T09:08:53.611Z,1.20
2018-05-04T09:09:53.607Z,1.80
2018-05-04T09:10:53.612Z,3.10
2018-05-04T09:11:53.829Z,2.50
2018-05-04T09:12:53.655Z,2.00
2018-05-04T09:13:53.619Z,3.50
2018-05-04T09:14:53.633Z,2.10
2018-05-04T09:15:53.622Z,2.00
2018-05-04T09:16:53.626Z,4.20
2018-05-04T09:17:53.625Z,2.90
2018-05-04T09:18:53.628Z,2.50
2018-05-04T09:19:53.653Z,2.10
2018-05-04T09:20:53.631Z,1.60
2018-05-04T09:21:53.632Z,1.20
2018-05-04T09:22:53.636Z,1.90
2018-05-04T09:23:53.638Z,2.30
2018-05-04T09:24:53.691Z,5.90
2018-05-04T09:25:53.638Z,1.90
2018-05-04T09:26:53.639Z,2.10
2018-05-04T09:27:53.642Z,2.20
2018-05-04T09:28:53.641Z,2.30
2018-05-04T09:29:53.644Z,1.30
2018-05-04T09:30:53.646Z,5.20
2018-05-04T09:31:53.642Z,2.00
2018-05-04T09:32:53.647Z,1.80
2018-05-04T09:33:53.645Z,1.90
2018-05-04T09:34:53.645Z,1.90
2018-05-04T09:35:53.644Z,1.40
2018-05-04T09:36:53.651Z,2.90
2018-05-04T09:37:53.651Z,1.70
2018-05-04T09:38:53.650Z,2.70
2018-05-04T09:39:53.764Z,6.00
2018-05-04T09:40:53.648Z,2.40
2018-05-04T09:41:53.653Z,3.50
2018-05-04T09:42:53.650Z,2.00
2018-05-04T09:43:53.652Z,1.00
2018-05-04T09:44:53.670Z,1.80
2018-05-04T09:45:53.655Z,1.70
2018-05-04T09:46:53.651Z,2.20
2018-05-04T09:47:53.656Z,3.00
2018-05-04T09:48:53.652Z,2.10
2018-05-04T09:49:53.655Z,1.60
2018-05-04T09:50:53.652Z,2.80
2018-05-04T09:51:53.656Z,2.20
2018-05-04T09:52:53.653Z,2.00
2018-05-04T09:53:53.662Z,1.60
2018-05-04T09:54:53.654Z,1.80
2018-05-04T09:55:53.746Z,2.50
2018-05-04T09:56:53.654Z,1.40
2018-05-04T09:57:53.652Z,3.00
2018-05-04T09:58:53.660Z,3.70
2018-05-04T09:59:53.656Z,2.50
2018-05-04T10:00:53.696Z,1.60
2018-05-04T10:01:53.654Z,2.00
2018-05-04T10:02:53.653Z,1.10
2018-05-04T10:03:53.653Z,2.10
2018-05-04T10:04:53.668Z,0.90
2018-05-04T10:05:53.655Z,2.00
2018-05-04T10:06:53.656Z,1.00
2018-05-04T10:07:53.653Z,1.70
2018-05-04T10:08:53.727Z,2.10
2018-05-04T10:09:53.654Z,1.90
2018-05-04T10:10:53.680Z,1.30
2018-05-04T10:11:53.654Z,1.30
2018-05-04T10:12:53.653Z,2.00
2018-05-04T10:13:53.652Z,2.00
2018-05-04T10:14:53.654Z,1.80
2018-05-04T10:15:53.683Z,2.50
2018-05-04T10:16:53.652Z,1.90
2018-05-04T10:17:53.653Z,1.20
2018-05-04T10:18:53.651Z,2.30
2018-05-04T10:19:53.657Z,2.30
2018-05-04T10:20:53.650Z,1.70
2018-05-04T10:21:53.702Z,2.00
2018-05-04T10:22:53.651Z,1.10
2018-05-04T10:23:53.650Z,2.70
2018-05-04T10:24:53.650Z,1.50
2018-05-04T10:25:53.649Z,1.80
2018-05-04T10:26:53.650Z,1.10
2018-05-04T10:27:53.664Z,2.00
2018-05-04T10:28:53.650Z,1.40
2018-05-04T10:29:53.649Z,3.90
2018-05-04T10:30:53.710Z,1.60
2018-05-04T10:31:53.648Z,2.10
2018-05-04T10:32:53.668Z,1.00
2018-05-04T10:33:53.649Z,1.10
2018-05-04T10:34:53.647Z,1.90
2018-05-04T10:35:53.661Z,2.10
2018-05-04T10:36:53.771Z,0.90
2018-05-04T10:37:53.648Z,2.30
2018-05-04T10:38:53.760Z,1.90
2018-05-04T10:39:53.647Z,1.60
2018-05-04T10:40:53.647Z,2.50
2018-05-04T10:41:53.648Z,2.00
2018-05-04T10:42:53.652Z,2.40
2018-05-04T10:43:53.655Z,1.70
2018-05-04T10:44:53.646Z,2.10
2018-05-04T10:45:53.653Z,2.70
2018-05-04T10:46:53.646Z,0.90
2018-05-04T10:47:53.651Z,1.70
2018-05-04T10:48:53.847Z,1.90
2018-05-04T10:49:53.648Z,2.00
2018-05-04T10:50:53.644Z,2.20
2018-05-04T10:51:53.663Z,2.30
2018-05-04T10:52:53.646Z,1.00
2018-05-04T10:53:53.645Z,1.80
2018-05-04T10:54:53.644Z,1.50
2018-05-04T10:55:53.644Z,2.10
2018-05-04T10:56:53.652Z,1.60
2018-05-04T10:57:53.737Z,1.50
2018-05-04T10:58:53.646Z,0.90
2018-05-04T10:59:53.647Z,1.50
2018-05-04T11:00:53.649Z,1.50
2018-05-04T11:01:53.645Z,1.20
2018-05-04T11:02:53.660Z,1.60
2018-05-04T11:03:53.645Z,1.60
2018-05-04T11:04:53.656Z,2.20
2018-05-04T11:05:53.645Z,1.30
2018-05-04T11:06:53.647Z,1.00
2018-05-04T11:07:53.646Z,1.90
2018-05-04T11:08:53.645Z,1.50
2018-05-04T11:09:53.644Z,1.50
2018-05-04T11:10:53.647Z,1.90
2018-05-04T11:11:53.716Z,2.40
2018-05-04T11:12:53.648Z,1.50
2018-05-04T11:13:53.643Z,1.90
2018-05-04T11:14:53.642Z,2.30
2018-05-04T11:15:53.647Z,1.40
2018-05-04T11:16:53.830Z,1.90
2018-05-04T11:17:53.643Z,1.60
2018-05-04T11:18:53.647Z,1.50
2018-05-04T11:19:53.645Z,2.30
2018-05-04T11:20:53.648Z,1.70
2018-05-04T11:21:53.747Z,1.30
2018-05-04T11:22:53.652Z,1.80
2018-05-04T11:23:53.647Z,2.10
2018-05-04T11:24:53.647Z,2.50
2018-05-04T11:25:53.646Z,2.00
2018-05-04T11:26:53.759Z,1.30
2018-05-04T11:27:53.645Z,2.10
2018-05-04T11:28:53.649Z,1.90
2018-05-04T11:29:53.646Z,3.20
2018-05-04T11:30:53.654Z,1.60
2018-05-04T11:31:53.651Z,1.70
2018-05-04T11:32:53.733Z,2.00
2018-05-04T11:33:53.648Z,1.80
2018-05-04T11:34:53.647Z,2.20
2018-05-04T11:35:53.652Z,2.50
2018-05-04T11:36:53.675Z,1.70
2018-05-04T11:37:53.652Z,2.00
2018-05-04T11:38:53.666Z,1.30
2018-05-04T11:39:53.652Z,3.30
2018-05-04T11:40:53.709Z,1.40
2018-05-04T11:41:53.691Z,1.80
2018-05-04T11:42:53.723Z,1.80
2018-05-04T11:43:53.699Z,1.60
2018-05-04T11:44:53.679Z,2.00
2018-05-04T11:45:53.685Z,2.10
2018-05-04T11:46:53.700Z,1.30
2018-05-04T11:47:53.727Z,2.60
2018-05-04T11:48:53.723Z,2.00
2018-05-04T11:49:53.717Z,1.90
2018-05-04T11:50:53.707Z,1.50
2018-05-04T11:51:53.696Z,1.30
2018-05-04T11:52:53.711Z,2.60
2018-05-04T11:53:53.655Z,1.70
2018-05-04T11:54:53.653Z,1.70
2018-05-04T11:55:53.661Z,2.10
2018-05-04T11:56:53.663Z,1.30
2018-05-04T11:57:53.656Z,2.80
2018-05-04T11:58:53.655Z,1.80
2018-05-04T11:59:53.660Z,1.20
2018-05-04T12:00:53.659Z,1.80
2018-05-04T12:01:53.659Z,2.00
2018-05-04T12:02:53.654Z,3.50
2018-05-04T12:03:53.657Z,1.70
2018-05-04T12:04:53.699Z,2.10
2018-05-04T12:05:53.660Z,2.30
2018-05-04T12:06:53.661Z,1.40
2018-05-04T12:07:53.659Z,2.00
2018-05-04T12:08:53.663Z,3.60
2018-05-04T12:09:53.662Z,3.30
2018-05-04T12:10:53.743Z,2.10
2018-05-04T12:11:53.664Z,1.70
2018-05-04T12:12:53.666Z,2.00
2018-05-04T12:13:53.665Z,1.70
2018-05-04T12:14:53.665Z,2.50
2018-05-04T12:15:53.670Z,1.60
2018-05-04T12:16:53.665Z,1.90
2018-05-04T12:17:53.669Z,1.10
2018-05-04T12:18:53.668Z,1.20
2018-05-04T12:19:53.666Z,2.40
2018-05-04T12:20:53.670Z,2.30
2018-05-04T12:21:53.670Z,2.80
2018-05-04T12:22:53.824Z,2.50
2018-05-04T12:23:53.672Z,2.50
2018-05-04T12:24:53.732Z,2.60
2018-05-04T12:25:53.672Z,1.40
2018-05-04T12:26:53.677Z,2.60
2018-05-04T12:27:53.677Z,1.50
2018-05-04T12:28:53.674Z,2.20
2018-05-04T12:29:53.678Z,1.90
2018-05-04T12:30:53.714Z,2.60
2018-05-04T12:31:53.678Z,2.00
2018-05-04T12:32:53.681Z,1.80
2018-05-04T12:33:53.692Z,2.10
2018-05-04T12:34:53.828Z,1.20
2018-05-04T12:35:53.673Z,1.30
2018-05-04T12:36:53.683Z,1.70
2018-05-04T12:37:53.682Z,3.80
2018-05-04T12:38:53.681Z,1.50
2018-05-04T12:39:53.681Z,2.60
2018-05-04T12:40:53.682Z,2.40
2018-05-04T12:41:53.684Z,1.50
2018-05-04T12:42:53.684Z,2.10
2018-05-04T12:43:53.682Z,2.10
2018-05-04T12:44:53.684Z,2.60
2018-05-04T12:45:53.687Z,1.70
2018-05-04T12:46:53.750Z,1.40
2018-05-04T12:47:53.689Z,1.90
2018-05-04T12:48:53.689Z,2.90
2018-05-04T12:49:53.689Z,1.30
2018-05-04T12:50:53.690Z,2.40
2018-05-04T12:51:53.691Z,1.80
2018-05-04T12:52:53.692Z,1.40
2018-05-04T12:53:53.691Z,1.50
2018-05-04T12:54:53.694Z,1.80
2018-05-04T12:55:53.700Z,2.10
2018-05-04T12:56:53.698Z,2.10
2018-05-04T12:57:53.692Z,3.40
2018-05-04T12:58:53.812Z,2.20
2018-05-04T12:59:53.698Z,2.40
2018-05-04T13:00:53.700Z,2.70
2018-05-04T13:01:53.703Z,1.80
2018-05-04T13:02:53.699Z,2.00
2018-05-04T13:03:53.716Z,2.00
2018-05-04T13:04:53.709Z,1.90
2018-05-04T13:05:53.708Z,2.20
2018-05-04T13:06:53.704Z,1.70
2018-05-04T13:07:53.748Z,2.30
2018-05-04T13:08:53.800Z,2.30
2018-05-04T13:09:53.710Z,1.40
2018-05-04T13:10:53.712Z,2.30
2018-05-04T13:11:53.707Z,3.70
2018-05-04T13:12:53.712Z,1.00
2018-05-04T13:13:53.710Z,2.20
2018-05-04T13:14:53.714Z,1.40
2018-05-04T13:15:53.713Z,1.40
2018-05-04T13:16:53.717Z,2.40
2018-05-04T13:17:53.719Z,1.50
2018-05-04T13:18:53.719Z,1.20